sensor_id;sensor_type;location;lat;lon;timestamp;pressure;altitude;pressure_sealevel;temperature;humidity
52032;BME280;38044;45.148;39.604;2023-02-05T00:02:10;101039.44;;;1.28;87.88
52032;BME280;38044;45.148;39.604;2023-02-05T00:04:36;101052.59;;;1.41;88.03
52032;BME280;38044;45.148;39.604;2023-02-05T00:07:03;101044.31;;;1.31;87.87
52032;BME280;38044;45.148;39.604;2023-02-05T00:09:29;101050.41;;;1.31;88.09
52032;BME280;38044;45.148;39.604;2023-02-05T00:11:56;101039.06;;;1.24;88.00
52032;BME280;38044;45.148;39.604;2023-02-05T00:14:22;101031.72;;;1.26;87.97
52032;BME280;38044;45.148;39.604;2023-02-05T00:16:49;101048.97;;;1.35;88.07
52032;BME280;38044;45.148;39.604;2023-02-05T00:19:15;101049.13;;;1.41;88.07
52032;BME280;38044;45.148;39.604;2023-02-05T00:21:41;101030.50;;;1.29;87.85
52032;BME280;38044;45.148;39.604;2023-02-05T00:24:07;101011.03;;;1.17;87.81
52032;BME280;38044;45.148;39.604;2023-02-05T00:26:33;101026.47;;;1.20;87.95
52032;BME280;38044;45.148;39.604;2023-02-05T00:28:58;100884.50;;;0.32;87.71
52032;BME280;38044;45.148;39.604;2023-02-05T00:31:24;101033.00;;;1.17;87.98
52032;BME280;38044;45.148;39.604;2023-02-05T00:33:51;101004.38;;;1.07;87.83
52032;BME280;38044;45.148;39.604;2023-02-05T00:36:18;101046.22;;;1.24;88.06
52032;BME280;38044;45.148;39.604;2023-02-05T00:38:44;100956.03;;;0.68;87.93
52032;BME280;38044;45.148;39.604;2023-02-05T00:41:10;100875.88;;;0.11;87.93
52032;BME280;38044;45.148;39.604;2023-02-05T00:43:37;101040.59;;;1.13;88.00
52032;BME280;38044;45.148;39.604;2023-02-05T00:46:03;101051.19;;;1.13;88.18
52032;BME280;38044;45.148;39.604;2023-02-05T00:48:29;101003.06;;;0.92;88.21
52032;BME280;38044;45.148;39.604;2023-02-05T00:50:55;101017.69;;;1.01;88.23
52032;BME280;38044;45.148;39.604;2023-02-05T00:53:22;100879.72;;;0.15;88.04
52032;BME280;38044;45.148;39.604;2023-02-05T00:55:48;101041.63;;;1.12;88.31
52032;BME280;38044;45.148;39.604;2023-02-05T00:58:15;101017.28;;;0.97;88.30
52032;BME280;38044;45.148;39.604;2023-02-05T01:00:41;101038.00;;;1.07;88.10
52032;BME280;38044;45.148;39.604;2023-02-05T01:03:07;101025.63;;;1.01;88.12
52032;BME280;38044;45.148;39.604;2023-02-05T01:05:34;101005.19;;;0.83;87.83
52032;BME280;38044;45.148;39.604;2023-02-05T01:08:01;101032.44;;;0.90;88.03
52032;BME280;38044;45.148;39.604;2023-02-05T01:10:27;101039.72;;;0.95;88.15
52032;BME280;38044;45.148;39.604;2023-02-05T01:12:53;101014.97;;;0.82;88.04
52032;BME280;38044;45.148;39.604;2023-02-05T01:15:19;101019.53;;;0.68;88.17
52032;BME280;38044;45.148;39.604;2023-02-05T01:17:44;100999.03;;;0.64;88.26
52032;BME280;38044;45.148;39.604;2023-02-05T01:20:11;100930.75;;;0.16;88.37
52032;BME280;38044;45.148;39.604;2023-02-05T01:22:38;100989.94;;;0.53;88.42
52032;BME280;38044;45.148;39.604;2023-02-05T01:25:04;101049.78;;;0.86;88.37
52032;BME280;38044;45.148;39.604;2023-02-05T01:27:34;101053.97;;;0.94;88.52
52032;BME280;38044;45.148;39.604;2023-02-05T01:30:00;101043.44;;;0.87;88.18
52032;BME280;38044;45.148;39.604;2023-02-05T01:32:27;101061.91;;;0.94;88.38
52032;BME280;38044;45.148;39.604;2023-02-05T01:34:53;100997.25;;;0.58;88.33
52032;BME280;38044;45.148;39.604;2023-02-05T01:37:19;101002.53;;;0.58;88.34
52032;BME280;38044;45.148;39.604;2023-02-05T01:39:45;100897.13;;;-0.02;88.10
52032;BME280;38044;45.148;39.604;2023-02-05T01:42:23;101063.88;;;1.05;88.36
52032;BME280;38044;45.148;39.604;2023-02-05T01:47:53;101038.09;;;0.94;88.44
52032;BME280;38044;45.148;39.604;2023-02-05T01:50:37;101087.81;;;1.17;88.13
52032;BME280;38044;45.148;39.604;2023-02-05T01:53:09;101082.31;;;1.18;88.04
52032;BME280;38044;45.148;39.604;2023-02-05T01:55:41;101072.28;;;1.27;88.20
52032;BME280;38044;45.148;39.604;2023-02-05T01:58:09;100983.69;;;0.73;87.59
52032;BME280;38044;45.148;39.604;2023-02-05T02:00:35;101087.09;;;1.34;87.83
52032;BME280;38044;45.148;39.604;2023-02-05T02:03:01;101077.72;;;1.32;87.94
52032;BME280;38044;45.148;39.604;2023-02-05T02:05:28;101077.59;;;1.45;87.91
52032;BME280;38044;45.148;39.604;2023-02-05T02:07:54;100931.63;;;0.66;87.66
52032;BME280;38044;45.148;39.604;2023-02-05T02:10:20;101067.78;;;1.52;87.83
52032;BME280;38044;45.148;39.604;2023-02-05T02:12:47;101070.94;;;1.61;87.74
52032;BME280;38044;45.148;39.604;2023-02-05T02:15:20;101069.84;;;1.69;87.60
52032;BME280;38044;45.148;39.604;2023-02-05T02:17:59;101072.06;;;1.72;87.32
52032;BME280;38044;45.148;39.604;2023-02-05T02:20:48;101061.16;;;1.62;87.14
52032;BME280;38044;45.148;39.604;2023-02-05T02:28:59;101074.47;;;1.55;87.06
52032;BME280;38044;45.148;39.604;2023-02-05T02:31:45;101092.19;;;1.54;87.05
52032;BME280;38044;45.148;39.604;2023-02-05T02:34:23;101063.19;;;1.41;86.91
52032;BME280;38044;45.148;39.604;2023-02-05T02:36:59;101078.84;;;1.43;86.98
52032;BME280;38044;45.148;39.604;2023-02-05T02:39:41;101080.25;;;1.45;86.97
52032;BME280;38044;45.148;39.604;2023-02-05T02:42:15;100940.69;;;0.52;86.77
52032;BME280;38044;45.148;39.604;2023-02-05T02:44:52;101018.88;;;1.05;87.01
52032;BME280;38044;45.148;39.604;2023-02-05T02:47:24;100951.28;;;0.52;86.85
52032;BME280;38044;45.148;39.604;2023-02-05T02:52:20;101076.53;;;1.28;87.30
52032;BME280;38044;45.148;39.604;2023-02-05T02:54:54;101064.69;;;1.30;87.28
52032;BME280;38044;45.148;39.604;2023-02-05T02:57:34;101023.34;;;1.04;87.67
52032;BME280;38044;45.148;39.604;2023-02-05T03:00:09;101077.28;;;1.35;87.75
52032;BME280;38044;45.148;39.604;2023-02-05T03:02:37;101059.47;;;1.24;87.72
52032;BME280;38044;45.148;39.604;2023-02-05T03:05:13;101088.19;;;1.45;87.37
52032;BME280;38044;45.148;39.604;2023-02-05T03:08:06;100944.25;;;0.64;87.34
52032;BME280;38044;45.148;39.604;2023-02-05T03:13:22;100899.97;;;0.28;87.08
52032;BME280;38044;45.148;39.604;2023-02-05T03:15:48;100949.22;;;0.54;87.07
52032;BME280;38044;45.148;39.604;2023-02-05T03:18:15;100981.22;;;0.78;87.24
52032;BME280;38044;45.148;39.604;2023-02-05T03:20:49;100962.78;;;0.64;86.88
52032;BME280;38044;45.148;39.604;2023-02-05T03:23:16;101060.31;;;1.18;86.53
52032;BME280;38044;45.148;39.604;2023-02-05T03:25:42;101074.56;;;1.17;86.82
52032;BME280;38044;45.148;39.604;2023-02-05T03:28:09;101074.81;;;1.15;86.90
52032;BME280;38044;45.148;39.604;2023-02-05T03:30:53;101030.38;;;0.92;87.26
52032;BME280;38044;45.148;39.604;2023-02-05T03:34:03;101079.00;;;1.23;87.26
52032;BME280;38044;45.148;39.604;2023-02-05T03:36:33;101076.66;;;1.15;87.05
52032;BME280;38044;45.148;39.604;2023-02-05T03:47:13;101065.78;;;0.98;86.89
52032;BME280;38044;45.148;39.604;2023-02-05T03:49:52;100912.56;;;0.01;86.99
52032;BME280;38044;45.148;39.604;2023-02-05T03:52:30;100876.28;;;-0.24;87.22
52032;BME280;38044;45.148;39.604;2023-02-05T03:55:07;100931.66;;;0.03;87.26
52032;BME280;38044;45.148;39.604;2023-02-05T03:57:52;101043.16;;;0.70;87.43
52032;BME280;38044;45.148;39.604;2023-02-05T04:00:21;101012.56;;;0.49;87.56
52032;BME280;38044;45.148;39.604;2023-02-05T04:02:48;101063.47;;;0.76;87.65
52032;BME280;38044;45.148;39.604;2023-02-05T04:05:13;101031.84;;;0.56;88.00
52032;BME280;38044;45.148;39.604;2023-02-05T04:07:39;101014.53;;;0.54;87.92
52032;BME280;38044;45.148;39.604;2023-02-05T04:10:06;101048.38;;;0.77;88.07
52032;BME280;38044;45.148;39.604;2023-02-05T04:12:32;100881.81;;;-0.32;88.12
52032;BME280;38044;45.148;39.604;2023-02-05T04:14:57;100958.66;;;0.12;88.11
52032;BME280;38044;45.148;39.604;2023-02-05T04:17:23;100891.81;;;-0.34;88.20
52032;BME280;38044;45.148;39.604;2023-02-05T04:19:49;101046.84;;;0.62;88.23
52032;BME280;38044;45.148;39.604;2023-02-05T04:22:15;100975.09;;;0.20;88.19
52032;BME280;38044;45.148;39.604;2023-02-05T04:24:40;100909.44;;;-0.28;88.45
52032;BME280;38044;45.148;39.604;2023-02-05T04:27:06;101065.16;;;0.64;88.47
52032;BME280;38044;45.148;39.604;2023-02-05T04:29:32;101055.25;;;0.53;88.41
52032;BME280;38044;45.148;39.604;2023-02-05T04:31:57;101050.53;;;0.61;88.32
52032;BME280;38044;45.148;39.604;2023-02-05T04:34:23;101061.13;;;0.61;88.44
52032;BME280;38044;45.148;39.604;2023-02-05T04:36:49;100922.44;;;-0.26;88.19
52032;BME280;38044;45.148;39.604;2023-02-05T04:39:15;100917.78;;;-0.31;88.14
52032;BME280;38044;45.148;39.604;2023-02-05T04:41:40;101047.09;;;0.54;88.15
52032;BME280;38044;45.148;39.604;2023-02-05T04:44:06;100911.09;;;-0.33;87.99
52032;BME280;38044;45.148;39.604;2023-02-05T04:46:32;101036.78;;;0.46;88.20
52032;BME280;38044;45.148;39.604;2023-02-05T04:48:59;100913.50;;;-0.25;87.87
52032;BME280;38044;45.148;39.604;2023-02-05T04:51:25;100910.28;;;-0.34;87.70
52032;BME280;38044;45.148;39.604;2023-02-05T04:53:50;100980.00;;;0.10;87.72
52032;BME280;38044;45.148;39.604;2023-02-05T04:56:16;100930.94;;;-0.17;87.77
52032;BME280;38044;45.148;39.604;2023-02-05T04:58:43;101026.78;;;0.48;87.96
52032;BME280;38044;45.148;39.604;2023-02-05T05:01:15;100915.91;;;-0.24;87.95
52032;BME280;38044;45.148;39.604;2023-02-05T05:03:42;100900.72;;;-0.35;87.76
52032;BME280;38044;45.148;39.604;2023-02-05T05:06:08;100920.41;;;-0.24;87.96
52032;BME280;38044;45.148;39.604;2023-02-05T05:08:35;101025.41;;;0.39;88.12
52032;BME280;38044;45.148;39.604;2023-02-05T05:11:05;101071.63;;;0.75;88.16
52032;BME280;38044;45.148;39.604;2023-02-05T05:13:32;100999.47;;;0.22;87.92
52032;BME280;38044;45.148;39.604;2023-02-05T05:15:58;101077.53;;;0.70;88.16
52032;BME280;38044;45.148;39.604;2023-02-05T05:18:24;101069.22;;;0.66;88.16
52032;BME280;38044;45.148;39.604;2023-02-05T05:20:50;101052.22;;;0.49;87.95
52032;BME280;38044;45.148;39.604;2023-02-05T05:23:16;101089.53;;;0.73;87.90
52032;BME280;38044;45.148;39.604;2023-02-05T05:25:43;101051.81;;;0.52;88.00
52032;BME280;38044;45.148;39.604;2023-02-05T05:28:10;101100.31;;;0.78;88.17
52032;BME280;38044;45.148;39.604;2023-02-05T05:30:40;100942.72;;;-0.13;87.72
52032;BME280;38044;45.148;39.604;2023-02-05T05:33:06;101039.16;;;0.54;87.78
52032;BME280;38044;45.148;39.604;2023-02-05T05:35:32;100980.19;;;0.15;87.76
52032;BME280;38044;45.148;39.604;2023-02-05T05:37:59;101020.75;;;0.41;87.79
52032;BME280;38044;45.148;39.604;2023-02-05T05:40:26;101098.00;;;0.88;88.01
52032;BME280;38044;45.148;39.604;2023-02-05T05:43:16;101085.97;;;0.92;87.72
52032;BME280;38044;45.148;39.604;2023-02-05T05:46:07;101092.44;;;0.96;87.59
52032;BME280;38044;45.148;39.604;2023-02-05T05:48:33;101076.38;;;0.91;87.67
52032;BME280;38044;45.148;39.604;2023-02-05T05:50:59;101060.13;;;0.87;87.37
52032;BME280;38044;45.148;39.604;2023-02-05T05:53:25;101095.44;;;1.06;87.09
52032;BME280;38044;45.148;39.604;2023-02-05T05:55:51;100995.22;;;0.53;86.98
52032;BME280;38044;45.148;39.604;2023-02-05T05:58:17;101044.63;;;0.91;86.73
52032;BME280;38044;45.148;39.604;2023-02-05T06:00:42;101059.06;;;0.95;86.62
52032;BME280;38044;45.148;39.604;2023-02-05T06:03:09;101093.56;;;1.13;86.55
52032;BME280;38044;45.148;39.604;2023-02-05T06:05:36;100967.41;;;0.44;86.40
52032;BME280;38044;45.148;39.604;2023-02-05T06:08:02;101079.50;;;1.13;86.42
52032;BME280;38044;45.148;39.604;2023-02-05T06:10:28;101068.97;;;1.06;86.71
52032;BME280;38044;45.148;39.604;2023-02-05T06:12:54;101058.72;;;0.85;86.61
52032;BME280;38044;45.148;39.604;2023-02-05T06:15:21;101083.81;;;1.07;86.62
52032;BME280;38044;45.148;39.604;2023-02-05T06:17:47;100880.47;;;-0.09;87.00
52032;BME280;38044;45.148;39.604;2023-02-05T06:20:13;101069.97;;;1.05;87.18
52032;BME280;38044;45.148;39.604;2023-02-05T06:22:40;101015.66;;;0.71;87.00
52032;BME280;38044;45.148;39.604;2023-02-05T06:25:06;101078.69;;;1.12;87.28
52032;BME280;38044;45.148;39.604;2023-02-05T06:27:32;101084.25;;;1.04;87.44
52032;BME280;38044;45.148;39.604;2023-02-05T06:29:58;101098.22;;;1.18;87.61
52032;BME280;38044;45.148;39.604;2023-02-05T06:32:24;101053.50;;;1.03;87.53
52032;BME280;38044;45.148;39.604;2023-02-05T06:34:50;101090.38;;;1.30;87.32
52032;BME280;38044;45.148;39.604;2023-02-05T06:37:15;100938.75;;;0.41;87.32
52032;BME280;38044;45.148;39.604;2023-02-05T06:39:42;100931.41;;;0.43;87.36
52032;BME280;38044;45.148;39.604;2023-02-05T06:42:07;100986.81;;;0.88;86.91
52032;BME280;38044;45.148;39.604;2023-02-05T06:44:33;101115.72;;;1.69;86.68
52032;BME280;38044;45.148;39.604;2023-02-05T06:46:59;101013.50;;;1.11;86.42
52032;BME280;38044;45.148;39.604;2023-02-05T06:49:25;101097.09;;;1.57;86.26
52032;BME280;38044;45.148;39.604;2023-02-05T06:51:51;101124.25;;;1.71;86.14
52032;BME280;38044;45.148;39.604;2023-02-05T06:54:17;101077.75;;;1.50;85.78
52032;BME280;38044;45.148;39.604;2023-02-05T06:56:43;100930.97;;;0.71;85.45
52032;BME280;38044;45.148;39.604;2023-02-05T06:59:09;101114.50;;;2.09;85.18
52032;BME280;38044;45.148;39.604;2023-02-05T07:01:34;101103.00;;;2.33;84.67
52032;BME280;38044;45.148;39.604;2023-02-05T07:04:02;101070.13;;;2.34;83.64
52032;BME280;38044;45.148;39.604;2023-02-05T07:06:28;101089.97;;;2.62;82.54
52032;BME280;38044;45.148;39.604;2023-02-05T07:08:54;100977.72;;;1.83;81.12
52032;BME280;38044;45.148;39.604;2023-02-05T07:11:21;100940.84;;;1.63;80.69
52032;BME280;38044;45.148;39.604;2023-02-05T07:13:47;101108.41;;;2.75;80.85
52032;BME280;38044;45.148;39.604;2023-02-05T07:16:13;101086.06;;;2.64;80.28
52032;BME280;38044;45.148;39.604;2023-02-05T07:18:39;101069.88;;;2.54;78.75
52032;BME280;38044;45.148;39.604;2023-02-05T07:21:07;101072.91;;;2.58;78.87
52032;BME280;38044;45.148;39.604;2023-02-05T07:23:33;101101.59;;;2.79;78.67
52032;BME280;38044;45.148;39.604;2023-02-05T07:26:08;101090.97;;;2.79;78.21
52032;BME280;38044;45.148;39.604;2023-02-05T07:28:35;101005.13;;;2.43;77.91
52032;BME280;38044;45.148;39.604;2023-02-05T07:31:05;101071.75;;;3.07;77.58
52032;BME280;38044;45.148;39.604;2023-02-05T07:33:31;101057.34;;;3.15;77.64
52032;BME280;38044;45.148;39.604;2023-02-05T07:35:57;101098.97;;;3.56;76.30
52032;BME280;38044;45.148;39.604;2023-02-05T07:38:26;101029.50;;;3.29;76.17
52032;BME280;38044;45.148;39.604;2023-02-05T07:40:52;101089.81;;;3.88;75.93
52032;BME280;38044;45.148;39.604;2023-02-05T07:43:17;101101.66;;;4.32;74.63
52032;BME280;38044;45.148;39.604;2023-02-05T07:45:43;101060.91;;;4.32;72.99
52032;BME280;38044;45.148;39.604;2023-02-05T07:48:09;101096.34;;;4.89;72.44
52032;BME280;38044;45.148;39.604;2023-02-05T07:50:35;100941.97;;;4.66;70.77
52032;BME280;38044;45.148;39.604;2023-02-05T07:53:01;101095.44;;;6.24;69.34
52032;BME280;38044;45.148;39.604;2023-02-05T07:55:26;101095.75;;;6.76;66.44
52032;BME280;38044;45.148;39.604;2023-02-05T07:57:52;101098.06;;;7.27;65.33
52032;BME280;38044;45.148;39.604;2023-02-05T08:00:18;100951.19;;;6.78;62.68
52032;BME280;38044;45.148;39.604;2023-02-05T08:02:44;101064.28;;;7.16;63.94
52032;BME280;38044;45.148;39.604;2023-02-05T08:05:10;100959.59;;;6.60;62.46
52032;BME280;38044;45.148;39.604;2023-02-05T08:07:37;101071.63;;;7.31;62.95
52032;BME280;38044;45.148;39.604;2023-02-05T08:10:03;101056.09;;;7.70;60.27
52032;BME280;38044;45.148;39.604;2023-02-05T08:12:29;101070.88;;;7.40;61.54
52032;BME280;38044;45.148;39.604;2023-02-05T08:14:55;101089.06;;;7.81;60.06
52032;BME280;38044;45.148;39.604;2023-02-05T08:17:21;100947.13;;;7.08;61.03
52032;BME280;38044;45.148;39.604;2023-02-05T08:19:47;101077.31;;;8.40;59.60
52032;BME280;38044;45.148;39.604;2023-02-05T08:22:12;101048.72;;;7.98;58.78
52032;BME280;38044;45.148;39.604;2023-02-05T08:24:38;101051.03;;;7.74;58.44
52032;BME280;38044;45.148;39.604;2023-02-05T08:27:04;101040.00;;;7.22;59.00
52032;BME280;38044;45.148;39.604;2023-02-05T08:29:30;101042.66;;;6.85;60.67
52032;BME280;38044;45.148;39.604;2023-02-05T08:31:56;100922.50;;;5.82;62.11
52032;BME280;38044;45.148;39.604;2023-02-05T08:34:22;100941.97;;;5.60;61.44
52032;BME280;38044;45.148;39.604;2023-02-05T08:36:47;101060.81;;;5.90;62.64
52032;BME280;38044;45.148;39.604;2023-02-05T08:39:13;100996.72;;;5.46;64.17
52032;BME280;38044;45.148;39.604;2023-02-05T08:41:39;101035.06;;;5.79;63.39
52032;BME280;38044;45.148;39.604;2023-02-05T08:44:05;100957.28;;;5.09;63.55
52032;BME280;38044;45.148;39.604;2023-02-05T08:46:30;101062.09;;;6.04;63.81
52032;BME280;38044;45.148;39.604;2023-02-05T08:48:58;100911.63;;;5.23;63.39
52032;BME280;38044;45.148;39.604;2023-02-05T08:51:24;101043.44;;;6.31;63.16
52032;BME280;38044;45.148;39.604;2023-02-05T08:53:49;101063.81;;;6.65;63.55
52032;BME280;38044;45.148;39.604;2023-02-05T08:56:16;100914.84;;;6.13;62.41
52032;BME280;38044;45.148;39.604;2023-02-05T08:58:42;100912.88;;;6.03;62.36
52032;BME280;38044;45.148;39.604;2023-02-05T09:01:13;101030.47;;;6.67;62.73
52032;BME280;38044;45.148;39.604;2023-02-05T09:03:40;101003.84;;;6.50;62.58
52032;BME280;38044;45.148;39.604;2023-02-05T09:06:12;101001.41;;;6.76;62.95
52032;BME280;38044;45.148;39.604;2023-02-05T09:08:38;101041.28;;;7.15;62.48
52032;BME280;38044;45.148;39.604;2023-02-05T09:11:05;100896.81;;;6.25;61.50
52032;BME280;38044;45.148;39.604;2023-02-05T09:13:31;100912.44;;;6.43;60.79
52032;BME280;38044;45.148;39.604;2023-02-05T09:15:57;101036.75;;;7.15;61.27
52032;BME280;38044;45.148;39.604;2023-02-05T09:18:23;100962.38;;;6.75;61.59
52032;BME280;38044;45.148;39.604;2023-02-05T09:20:49;101048.09;;;7.33;60.56
52032;BME280;38044;45.148;39.604;2023-02-05T09:23:17;101051.81;;;7.32;60.80
52032;BME280;38044;45.148;39.604;2023-02-05T09:25:43;100894.66;;;6.22;61.49
52032;BME280;38044;45.148;39.604;2023-02-05T09:28:12;101015.50;;;6.98;60.85
52032;BME280;38044;45.148;39.604;2023-02-05T09:30:40;100928.56;;;6.53;61.35
52032;BME280;38044;45.148;39.604;2023-02-05T09:33:06;101044.28;;;7.23;60.85
52032;BME280;38044;45.148;39.604;2023-02-05T09:35:34;100997.78;;;6.87;60.24
52032;BME280;38044;45.148;39.604;2023-02-05T09:38:00;101038.06;;;7.13;60.07
52032;BME280;38044;45.148;39.604;2023-02-05T09:43:53;101042.19;;;7.73;60.27
52032;BME280;38044;45.148;39.604;2023-02-05T09:46:49;101041.56;;;7.56;58.70
52032;BME280;38044;45.148;39.604;2023-02-05T09:49:26;101018.50;;;7.50;60.16
52032;BME280;38044;45.148;39.604;2023-02-05T09:52:18;100920.63;;;7.06;59.46
52032;BME280;38044;45.148;39.604;2023-02-05T09:54:44;101028.81;;;7.78;59.95
52032;BME280;38044;45.148;39.604;2023-02-05T09:57:14;100975.75;;;7.60;58.45
52032;BME280;38044;45.148;39.604;2023-02-05T09:59:44;101014.91;;;7.76;58.11
52032;BME280;38044;45.148;39.604;2023-02-05T10:05:25;101027.81;;;7.95;58.85
52032;BME280;38044;45.148;39.604;2023-02-05T10:10:27;101035.03;;;7.89;58.46
52032;BME280;38044;45.148;39.604;2023-02-05T10:13:17;101034.34;;;8.19;58.00
52032;BME280;38044;45.148;39.604;2023-02-05T10:16:33;101024.97;;;8.17;56.94
52032;BME280;38044;45.148;39.604;2023-02-05T10:22:06;101023.47;;;7.78;57.17
52032;BME280;38044;45.148;39.604;2023-02-05T10:25:40;100915.09;;;7.18;57.59
52032;BME280;38044;45.148;39.604;2023-02-05T10:31:18;101021.22;;;7.55;58.03
52032;BME280;38044;45.148;39.604;2023-02-05T10:33:53;100996.13;;;7.23;57.24
52032;BME280;38044;45.148;39.604;2023-02-05T10:36:25;100889.13;;;6.34;57.81
52032;BME280;38044;45.148;39.604;2023-02-05T10:38:55;101026.81;;;7.11;59.11
52032;BME280;38044;45.148;39.604;2023-02-05T10:41:51;101021.03;;;7.24;59.05
52032;BME280;38044;45.148;39.604;2023-02-05T10:44:33;100962.03;;;6.98;59.41
52032;BME280;38044;45.148;39.604;2023-02-05T10:47:16;100994.25;;;7.19;59.22
52032;BME280;38044;45.148;39.604;2023-02-05T10:50:00;100961.00;;;7.05;58.00
52032;BME280;38044;45.148;39.604;2023-02-05T10:52:27;101012.84;;;7.04;58.95
52032;BME280;38044;45.148;39.604;2023-02-05T10:54:53;101020.25;;;6.91;59.57
52032;BME280;38044;45.148;39.604;2023-02-05T10:57:21;101026.00;;;6.78;59.93
52032;BME280;38044;45.148;39.604;2023-02-05T10:59:52;101032.91;;;6.74;60.52
52032;BME280;38044;45.148;39.604;2023-02-05T11:02:20;101023.19;;;6.63;61.32
52032;BME280;38044;45.148;39.604;2023-02-05T11:04:54;100873.13;;;5.57;60.96
52032;BME280;38044;45.148;39.604;2023-02-05T11:07:34;101012.09;;;6.22;62.14
52032;BME280;38044;45.148;39.604;2023-02-05T11:10:19;100906.41;;;5.50;62.70
52032;BME280;38044;45.148;39.604;2023-02-05T11:12:48;100992.97;;;5.86;63.38
52032;BME280;38044;45.148;39.604;2023-02-05T11:15:24;100969.38;;;5.78;63.61
52032;BME280;38044;45.148;39.604;2023-02-05T11:18:02;101014.31;;;5.86;63.86
52032;BME280;38044;45.148;39.604;2023-02-05T11:20:32;101017.28;;;5.68;63.96
52032;BME280;38044;45.148;39.604;2023-02-05T11:23:20;101012.75;;;5.68;64.85
52032;BME280;38044;45.148;39.604;2023-02-05T11:25:55;101012.75;;;5.68;64.31
52032;BME280;38044;45.148;39.604;2023-02-05T11:28:27;100993.56;;;5.49;64.44
52032;BME280;38044;45.148;39.604;2023-02-05T11:30:54;100991.84;;;5.38;64.91
52032;BME280;38044;45.148;39.604;2023-02-05T11:38:42;101001.38;;;5.73;64.23
52032;BME280;38044;45.148;39.604;2023-02-05T11:41:12;100982.84;;;5.44;64.46
52032;BME280;38044;45.148;39.604;2023-02-05T11:43:49;101028.97;;;5.83;64.42
52032;BME280;38044;45.148;39.604;2023-02-05T11:46:18;100995.50;;;5.54;64.43
52032;BME280;38044;45.148;39.604;2023-02-05T11:48:58;101030.66;;;5.90;64.13
52032;BME280;38044;45.148;39.604;2023-02-05T11:51:43;100926.41;;;5.30;64.34
52032;BME280;38044;45.148;39.604;2023-02-05T11:54:24;101013.88;;;5.72;64.44
52032;BME280;38044;45.148;39.604;2023-02-05T12:08:31;101029.84;;;5.67;64.84
52032;BME280;38044;45.148;39.604;2023-02-05T12:16:46;101033.31;;;5.68;65.25
52032;BME280;38044;45.148;39.604;2023-02-05T12:19:22;100868.06;;;4.56;65.28
52032;BME280;38044;45.148;39.604;2023-02-05T12:21:55;100925.91;;;4.78;64.95
52032;BME280;38044;45.148;39.604;2023-02-05T12:27:15;101008.56;;;5.00;64.60
52032;BME280;38044;45.148;39.604;2023-02-05T12:41:46;101041.69;;;4.87;67.43
52032;BME280;38044;45.148;39.604;2023-02-05T12:49:49;101051.38;;;4.93;67.33
52032;BME280;38044;45.148;39.604;2023-02-05T12:55:21;100928.16;;;3.90;66.83
52032;BME280;38044;45.148;39.604;2023-02-05T12:57:58;101010.69;;;4.35;67.12
52032;BME280;38044;45.148;39.604;2023-02-05T13:00:27;101049.03;;;4.51;67.74
52032;BME280;38044;45.148;39.604;2023-02-05T13:05:53;100979.94;;;3.99;67.73
52032;BME280;38044;45.148;39.604;2023-02-05T13:08:43;101026.31;;;4.32;68.40
52032;BME280;38044;45.148;39.604;2023-02-05T13:11:38;101032.22;;;4.34;69.24
52032;BME280;38044;45.148;39.604;2023-02-05T13:14:12;101049.66;;;4.41;69.23
52032;BME280;38044;45.148;39.604;2023-02-05T13:16:45;100909.63;;;3.54;69.28
52032;BME280;38044;45.148;39.604;2023-02-05T13:21:50;101026.31;;;4.32;69.40
52032;BME280;38044;45.148;39.604;2023-02-05T13:24:43;101026.69;;;4.23;68.81
52032;BME280;38044;45.148;39.604;2023-02-05T13:27:32;101016.19;;;4.17;69.32
52032;BME280;38044;45.148;39.604;2023-02-05T13:30:23;101000.72;;;4.02;69.77
52032;BME280;38044;45.148;39.604;2023-02-05T13:33:00;100945.78;;;3.67;69.03
52032;BME280;38044;45.148;39.604;2023-02-05T13:35:33;100889.72;;;3.28;68.20
52032;BME280;38044;45.148;39.604;2023-02-05T13:41:12;101065.09;;;4.27;69.05
52032;BME280;38044;45.148;39.604;2023-02-05T13:58:27;101065.31;;;3.62;69.70
52032;BME280;38044;45.148;39.604;2023-02-05T14:03:37;101064.88;;;3.42;69.87
52032;BME280;38044;45.148;39.604;2023-02-05T14:06:22;100999.78;;;2.97;70.48
52032;BME280;38044;45.148;39.604;2023-02-05T14:08:59;101060.69;;;3.22;70.88
52032;BME280;38044;45.148;39.604;2023-02-05T14:11:26;101030.06;;;2.96;71.15
52032;BME280;38044;45.148;39.604;2023-02-05T14:16:43;101030.50;;;2.81;71.49
52032;BME280;38044;45.148;39.604;2023-02-05T14:19:24;100979.00;;;2.40;71.75
52032;BME280;38044;45.148;39.604;2023-02-05T14:22:02;101067.69;;;2.93;72.29
52032;BME280;38044;45.148;39.604;2023-02-05T14:24:46;100935.78;;;2.10;72.39
52032;BME280;38044;45.148;39.604;2023-02-05T14:29:51;101076.09;;;2.78;72.97
52032;BME280;38044;45.148;39.604;2023-02-05T14:37:46;101081.84;;;2.75;73.41
52032;BME280;38044;45.148;39.604;2023-02-05T14:40:30;101091.41;;;2.76;73.73
52032;BME280;38044;45.148;39.604;2023-02-05T14:43:00;101090.81;;;2.74;73.71
52032;BME280;38044;45.148;39.604;2023-02-05T14:45:30;100956.91;;;1.86;73.80
52032;BME280;38044;45.148;39.604;2023-02-05T14:47:56;101097.03;;;2.68;73.85
52032;BME280;38044;45.148;39.604;2023-02-05T14:50:29;101109.88;;;2.71;74.06
52032;BME280;38044;45.148;39.604;2023-02-05T14:52:59;101060.69;;;2.38;74.16
52032;BME280;38044;45.148;39.604;2023-02-05T14:55:36;101093.44;;;2.62;74.60
52032;BME280;38044;45.148;39.604;2023-02-05T14:58:23;101071.00;;;2.46;74.37
52032;BME280;38044;45.148;39.604;2023-02-05T15:01:53;101095.50;;;2.60;74.65
52032;BME280;38044;45.148;39.604;2023-02-05T15:04:01;100906.72;;;1.36;74.23
52032;BME280;38044;45.148;39.604;2023-02-05T15:06:30;100938.13;;;1.51;74.81
52032;BME280;38044;45.148;39.604;2023-02-05T15:09:29;101068.97;;;2.30;75.00